Time;durP1;ratioP1;P1;durP2;ratioP2;P2;SDS_P1;SDS_P2;PMS_P1;PMS_P2;Temp;Humidity;BMP_temperature;BMP_pressure;BME280_temperature;BME280_humidity;BME280_pressure;Samples;Min_cycle;Max_cycle;Signal;HPM_P1;HPM_P2
2022/08/07 00:00:48;;;;;;;13.27;10.23;;;23.30;99.90;;;;;;5091809;28;20310;-69
2022/08/07 00:03:15;;;;;;;12.87;10.20;;;23.20;99.90;;;;;;5091622;28;20267;-69
2022/08/07 00:05:43;;;;;;;12.90;10.20;;;23.20;99.90;;;;;;5091988;28;20206;-72
2022/08/07 00:08:10;;;;;;;13.23;10.57;;;23.20;99.90;;;;;;5095989;28;20277;-71
2022/08/07 00:10:37;;;;;;;14.23;10.73;;;23.20;99.90;;;;;;5105780;28;20617;-72
2022/08/07 00:13:06;;;;;;;13.30;10.73;;;23.10;99.90;;;;;;5091586;28;20206;-72
2022/08/07 00:15:33;;;;;;;13.90;11.20;;;23.10;99.90;;;;;;5091827;28;20201;-70
2022/08/07 00:18:00;;;;;;;12.70;11.17;;;23.10;99.90;;;;;;5091774;28;20660;-71
2022/08/07 00:20:27;;;;;;;15.57;11.03;;;23.10;99.90;;;;;;5091742;28;20704;-72
2022/08/07 00:22:55;;;;;;;14.37;11.10;;;23.10;99.90;;;;;;5091536;28;20262;-73
2022/08/07 00:25:23;;;;;;;14.20;10.83;;;23.00;99.90;;;;;;5091890;28;20204;-71
2022/08/07 00:27:50;;;;;;;14.37;11.10;;;23.00;99.90;;;;;;5099000;28;20571;-73
2022/08/07 00:30:17;;;;;;;14.93;10.77;;;23.00;99.90;;;;;;5111022;28;20627;-72
2022/08/07 00:32:47;;;;;;;14.53;11.70;;;23.00;99.90;;;;;;5111669;28;20207;-71
2022/08/07 00:35:14;;;;;;;16.40;10.73;;;23.00;99.90;;;;;;5109888;28;20228;-71
2022/08/07 00:37:41;;;;;;;14.50;11.33;;;22.90;99.90;;;;;;5094046;28;20681;-72
2022/08/07 00:40:09;;;;;;;15.33;12.00;;;23.00;99.90;;;;;;5094065;28;20251;-73
2022/08/07 00:42:37;;;;;;;13.60;11.23;;;23.00;99.90;;;;;;5095253;28;20228;-72
2022/08/07 00:45:05;;;;;;;13.97;10.90;;;23.00;99.90;;;;;;5095038;28;20293;-72
2022/08/07 00:47:32;;;;;;;17.23;12.07;;;23.00;99.90;;;;;;5095303;28;20220;-71
2022/08/07 00:49:59;;;;;;;15.50;12.13;;;23.00;99.90;;;;;;5094771;28;20295;-71
2022/08/07 00:52:26;;;;;;;16.43;11.70;;;22.90;99.90;;;;;;5095116;28;20720;-72
2022/08/07 00:54:53;;;;;;;14.13;11.40;;;22.90;99.90;;;;;;5102738;27;20207;-71
2022/08/07 00:57:22;;;;;;;15.50;11.63;;;22.90;99.90;;;;;;5094782;28;20211;-71
2022/08/07 00:59:49;;;;;;;13.03;10.77;;;22.90;99.90;;;;;;5094811;28;20224;-73
2022/08/07 01:02:16;;;;;;;13.87;11.80;;;22.90;99.90;;;;;;5094892;28;20231;-73
2022/08/07 01:04:43;;;;;;;15.63;12.10;;;22.90;99.90;;;;;;5101895;28;20239;-72
2022/08/07 01:07:11;;;;;;;12.57;10.23;;;22.90;99.90;;;;;;5103781;28;20212;-71
2022/08/07 01:09:38;;;;;;;14.07;11.30;;;22.80;99.90;;;;;;5094663;28;20606;-71
2022/08/07 01:12:05;;;;;;;12.07;10.37;;;22.80;99.90;;;;;;5094185;28;20218;-71
2022/08/07 01:14:34;;;;;;;14.30;11.60;;;22.80;99.90;;;;;;5094896;28;20817;-71
2022/08/07 01:17:01;;;;;;;13.63;11.40;;;22.80;99.90;;;;;;5094176;28;20644;-70
2022/08/07 01:19:30;;;;;;;16.10;12.53;;;22.70;99.90;;;;;;5094844;28;20206;-71
2022/08/07 01:21:59;;;;;;;13.43;11.53;;;22.70;99.90;;;;;;5114680;28;20680;-71
2022/08/07 01:24:28;;;;;;;16.33;11.97;;;22.70;99.90;;;;;;5115051;28;20243;-72
2022/08/07 01:26:55;;;;;;;14.53;12.10;;;22.70;99.90;;;;;;5114581;28;20296;-72
2022/08/07 01:29:24;;;;;;;16.47;12.33;;;22.70;99.90;;;;;;5113751;28;20239;-72
2022/08/07 01:31:52;;;;;;;13.90;11.70;;;22.70;99.90;;;;;;5093635;28;20283;-71
2022/08/07 01:34:19;;;;;;;16.77;13.67;;;22.70;99.90;;;;;;5099270;28;20310;-71
2022/08/07 01:36:47;;;;;;;15.73;12.73;;;22.70;99.90;;;;;;5114342;28;20282;-72
2022/08/07 01:39:15;;;;;;;14.93;13.30;;;22.70;99.90;;;;;;5114571;28;20253;-71
2022/08/07 01:41:43;;;;;;;18.53;13.83;;;22.60;99.90;;;;;;5114450;28;20230;-71
2022/08/07 01:44:11;;;;;;;16.83;13.40;;;22.60;99.90;;;;;;5109662;28;20652;-71
2022/08/07 01:46:40;;;;;;;19.37;15.00;;;22.60;99.90;;;;;;5093892;28;20236;-72
2022/08/07 01:49:07;;;;;;;17.30;14.33;;;22.60;99.90;;;;;;5093948;28;20287;-71
2022/08/07 01:51:35;;;;;;;18.60;15.50;;;22.60;99.90;;;;;;5093388;28;20288;-72
2022/08/07 01:54:07;;;;;;;20.00;14.90;;;22.50;99.90;;;;;;5099651;28;20204;-72
2022/08/07 01:56:41;;;;;;;18.10;14.43;;;22.50;99.90;;;;;;5093677;28;20218;-70
2022/08/07 01:59:13;;;;;;;19.00;15.73;;;22.40;99.90;;;;;;5093977;28;20192;-71
2022/08/07 02:01:45;;;;;;;19.10;15.53;;;22.40;99.90;;;;;;5105776;28;20216;-72
2022/08/07 02:04:16;;;;;;;19.97;15.40;;;22.30;99.90;;;;;;5114408;28;20279;-72
2022/08/07 02:06:44;;;;;;;18.77;14.10;;;22.20;99.90;;;;;;5113732;28;20354;-72
2022/08/07 02:09:14;;;;;;;20.43;15.00;;;22.20;99.90;;;;;;5113965;28;20298;-72
2022/08/07 02:11:44;;;;;;;22.03;15.70;;;22.10;99.90;;;;;;5102828;28;20745;-71
2022/08/07 02:14:14;;;;;;;18.33;14.97;;;22.10;99.90;;;;;;5093587;28;20192;-71
2022/08/07 02:16:42;;;;;;;20.50;15.43;;;22.10;99.90;;;;;;5093113;28;20286;-70
2022/08/07 02:19:13;;;;;;;18.47;14.87;;;22.10;99.90;;;;;;5093393;28;20200;-71
2022/08/07 02:21:42;;;;;;;20.53;16.00;;;22.00;99.90;;;;;;5104429;28;20255;-71
2022/08/07 02:24:10;;;;;;;19.27;15.50;;;22.00;99.90;;;;;;5112792;28;20565;-72
2022/08/07 02:26:38;;;;;;;20.10;17.03;;;21.90;99.90;;;;;;5113168;28;20252;-71
2022/08/07 02:29:10;;;;;;;20.60;16.50;;;21.90;99.90;;;;;;5113311;28;20209;-70
2022/08/07 02:31:37;;;;;;;19.73;15.73;;;21.90;99.90;;;;;;5111794;28;20199;-69
2022/08/07 02:34:06;;;;;;;21.07;15.37;;;21.90;99.90;;;;;;5112331;28;20333;-71
2022/08/07 02:36:33;;;;;;;21.80;15.57;;;21.90;99.90;;;;;;5113375;28;20246;-71
2022/08/07 02:39:03;;;;;;;20.00;15.67;;;21.90;99.90;;;;;;5113524;28;20203;-72
2022/08/07 02:41:31;;;;;;;17.93;14.53;;;22.00;99.90;;;;;;5111545;28;20226;-74
2022/08/07 02:44:00;;;;;;;18.90;15.70;;;22.00;99.90;;;;;;5113308;28;20290;-70
2022/08/07 02:46:31;;;;;;;16.67;13.70;;;22.00;99.90;;;;;;5113024;28;20317;-71
2022/08/07 02:48:58;;;;;;;18.43;14.63;;;22.00;99.90;;;;;;5113359;28;20242;-71
2022/08/07 02:51:27;;;;;;;22.43;14.17;;;22.10;99.90;;;;;;5103989;28;20265;-71
2022/08/07 02:53:55;;;;;;;15.67;13.63;;;22.10;99.90;;;;;;5104325;28;20655;-71
2022/08/07 02:56:24;;;;;;;17.53;14.37;;;22.10;99.90;;;;;;5112840;28;20245;-71
2022/08/07 02:58:53;;;;;;;17.30;13.93;;;22.10;99.90;;;;;;5112535;28;20247;-71
2022/08/07 03:01:21;;;;;;;16.60;13.23;;;22.10;99.90;;;;;;5110236;28;20231;-72
2022/08/07 03:03:50;;;;;;;17.80;14.20;;;22.20;99.90;;;;;;5111838;28;20203;-71
2022/08/07 03:06:19;;;;;;;19.83;14.47;;;22.20;99.90;;;;;;5113187;28;20268;-72
2022/08/07 03:08:47;;;;;;;18.50;14.47;;;22.20;99.90;;;;;;5112827;28;20670;-72
2022/08/07 03:11:16;;;;;;;14.43;12.77;;;22.20;99.90;;;;;;5111310;28;20650;-72
2022/08/07 03:13:43;;;;;;;16.37;12.60;;;22.30;99.90;;;;;;5112665;28;20246;-70
2022/08/07 03:16:12;;;;;;;16.60;12.40;;;22.30;99.90;;;;;;5111114;28;20210;-72
2022/08/07 03:18:39;;;;;;;14.00;12.33;;;22.30;99.90;;;;;;5109458;28;20216;-73
2022/08/07 03:21:08;;;;;;;14.50;11.90;;;22.40;99.90;;;;;;5112840;28;20294;-71
2022/08/07 03:23:37;;;;;;;15.40;13.10;;;22.40;99.90;;;;;;5112349;28;20227;-72
2022/08/07 03:26:06;;;;;;;16.73;14.03;;;22.40;99.90;;;;;;5112692;28;20217;-72
2022/08/07 03:28:35;;;;;;;18.13;13.27;;;22.40;99.90;;;;;;5111122;28;20200;-73
2022/08/07 03:31:19;;;;;;;15.30;12.53;;;22.50;99.90;;;;;;5113026;28;20607;-71
2022/08/07 03:33:48;;;;;;;15.37;12.23;;;22.50;99.90;;;;;;5112311;28;20191;-73
2022/08/07 03:36:17;;;;;;;14.97;13.37;;;22.60;99.90;;;;;;5112503;28;20229;-72
2022/08/07 03:38:46;;;;;;;15.73;12.47;;;22.60;99.90;;;;;;5110816;28;20215;-71
2022/08/07 03:41:14;;;;;;;17.90;12.93;;;22.70;99.90;;;;;;5112737;28;20199;-74
2022/08/07 03:43:42;;;;;;;19.83;15.20;;;22.70;99.90;;;;;;5112447;28;20685;-72
2022/08/07 03:46:09;;;;;;;19.30;15.67;;;22.70;99.90;;;;;;5112836;28;20294;-73
2022/08/07 03:48:36;;;;;;;20.67;16.43;;;22.70;99.90;;;;;;5106444;28;20283;-75
2022/08/07 03:51:04;;;;;;;18.97;15.73;;;22.70;99.90;;;;;;5092670;28;20608;-73
2022/08/07 03:53:33;;;;;;;19.23;15.37;;;22.70;99.90;;;;;;5091410;28;20297;-73
2022/08/07 03:56:01;;;;;;;22.07;16.60;;;22.70;99.90;;;;;;5094353;28;20197;-72
2022/08/07 03:58:29;;;;;;;19.60;15.70;;;22.70;99.90;;;;;;5112237;28;20227;-73
2022/08/07 04:00:57;;;;;;;22.20;17.10;;;22.80;99.90;;;;;;5112486;28;20641;-74
2022/08/07 04:03:24;;;;;;;19.93;16.83;;;22.80;99.90;;;;;;5111989;28;20316;-72
2022/08/07 04:05:52;;;;;;;26.40;17.90;;;22.80;99.90;;;;;;5107603;28;20610;-73
2022/08/07 04:08:19;;;;;;;21.80;18.53;;;22.80;99.90;;;;;;5091859;28;20304;-72
2022/08/07 04:10:48;;;;;;;20.87;17.00;;;22.80;99.90;;;;;;5091901;28;20290;-73
2022/08/07 04:13:16;;;;;;;22.67;17.73;;;22.80;99.90;;;;;;5102401;28;20209;-74
2022/08/07 04:15:44;;;;;;;21.83;15.83;;;22.80;99.90;;;;;;5116260;28;20248;-72
2022/08/07 04:18:13;;;;;;;18.13;14.03;;;22.90;99.90;;;;;;5116226;28;20299;-73
2022/08/07 04:20:40;;;;;;;18.57;15.40;;;22.90;99.90;;;;;;5115820;28;20204;-71
2022/08/07 04:23:08;;;;;;;18.13;14.27;;;23.00;99.90;;;;;;5111383;27;20232;-71
2022/08/07 04:25:38;;;;;;;17.40;14.47;;;23.10;99.90;;;;;;5094765;28;20212;-71
2022/08/07 04:28:06;;;;;;;19.00;15.10;;;23.20;99.90;;;;;;5095637;28;20240;-71
2022/08/07 04:30:34;;;;;;;20.53;15.67;;;23.20;99.90;;;;;;5098908;28;20284;-73
2022/08/07 04:33:05;;;;;;;19.53;15.07;;;23.30;99.90;;;;;;5115962;28;20742;-74
2022/08/07 04:35:32;;;;;;;16.27;13.97;;;23.30;99.90;;;;;;5111701;28;20741;-72
2022/08/07 04:37:59;;;;;;;20.67;15.10;;;23.40;99.90;;;;;;5115665;28;20214;-71
2022/08/07 04:40:26;;;;;;;17.37;14.70;;;23.50;99.90;;;;;;5115340;28;20987;-71
2022/08/07 04:42:53;;;;;;;18.37;14.10;;;23.60;99.90;;;;;;5112672;28;20227;-72
2022/08/07 04:45:24;;;;;;;19.17;13.73;;;23.60;99.90;;;;;;5113852;28;20666;-72
2022/08/07 04:47:55;;;;;;;17.60;13.77;;;23.70;99.90;;;;;;5115137;28;20252;-73
2022/08/07 04:50:32;;;;;;;16.33;13.20;;;23.70;99.90;;;;;;5114901;28;20199;-72
2022/08/07 04:53:06;;;;;;;16.00;13.60;;;23.80;99.90;;;;;;5113328;28;20274;-71
2022/08/07 04:55:42;;;;;;;17.23;13.17;;;23.90;99.90;;;;;;5112229;28;20238;-71
2022/08/07 04:58:19;;;;;;;15.40;11.93;;;24.00;99.90;;;;;;5115274;28;20247;-72
2022/08/07 05:00:54;;;;;;;14.70;11.70;;;24.10;99.90;;;;;;5113867;28;20781;-73
2022/08/07 05:03:27;;;;;;;14.50;11.93;;;24.20;99.90;;;;;;5108278;27;20210;-72
2022/08/07 05:06:00;;;;;;;13.25;11.38;;;24.30;99.90;;;;;;5112116;28;20232;-74
2022/08/07 05:08:34;;;;;;;12.80;10.80;;;24.40;99.90;;;;;;5112489;28;20191;-71
2022/08/07 05:11:09;;;;;;;12.47;10.20;;;24.50;99.90;;;;;;5111330;27;20240;-73
2022/08/07 05:13:44;;;;;;;12.03;10.27;;;24.60;99.90;;;;;;5102677;28;20196;-70
2022/08/07 05:16:15;;;;;;;10.85;9.13;;;24.70;99.90;;;;;;5111549;28;20316;-69
2022/08/07 05:18:48;;;;;;;11.52;9.27;;;24.80;99.90;;;;;;5111503;28;20277;-68
2022/08/07 05:21:19;;;;;;;11.97;9.10;;;24.90;99.90;;;;;;5113087;28;20694;-69
2022/08/07 05:23:50;;;;;;;10.50;9.40;;;25.00;99.90;;;;;;5113105;28;20209;-69
2022/08/07 05:26:18;;;;;;;12.30;9.20;;;25.10;99.90;;;;;;5110871;28;20626;-70
2022/08/07 05:28:48;;;;;;;10.55;8.88;;;25.20;99.90;;;;;;5113245;28;20633;-69
2022/08/07 05:31:17;;;;;;;11.48;9.02;;;25.30;99.90;;;;;;5113543;28;20629;-68
2022/08/07 05:33:45;;;;;;;10.60;9.20;;;25.40;99.90;;;;;;5112194;28;20201;-70
2022/08/07 05:36:13;;;;;;;11.82;9.40;;;25.40;99.90;;;;;;5110912;28;20267;-71
2022/08/07 05:38:41;;;;;;;9.63;8.50;;;25.50;99.90;;;;;;5110667;28;20291;-69
2022/08/07 05:41:09;;;;;;;10.57;8.70;;;25.50;99.90;;;;;;5111301;28;20201;-68
2022/08/07 05:43:37;;;;;;;11.75;9.15;;;25.60;99.90;;;;;;5112584;28;20302;-70
2022/08/07 05:46:05;;;;;;;10.32;8.35;;;25.60;99.90;;;;;;5111302;28;20201;-72
2022/08/07 05:48:33;;;;;;;10.40;8.60;;;25.70;99.90;;;;;;5112923;28;20191;-68
2022/08/07 05:51:02;;;;;;;10.68;8.45;;;25.70;99.90;;;;;;5114116;28;20210;-68
2022/08/07 05:53:29;;;;;;;12.43;9.52;;;25.80;99.90;;;;;;5114235;28;20633;-68
2022/08/07 05:55:58;;;;;;;13.13;9.75;;;25.80;99.90;;;;;;5112330;28;20315;-70
2022/08/07 05:58:26;;;;;;;11.00;9.40;;;25.90;99.90;;;;;;5111786;28;20201;-72
2022/08/07 06:00:54;;;;;;;11.18;9.43;;;26.00;99.90;;;;;;5112116;28;20204;-69
2022/08/07 06:03:23;;;;;;;12.00;10.27;;;26.00;99.90;;;;;;5113756;28;20588;-71
2022/08/07 06:05:53;;;;;;;14.52;10.48;;;26.00;99.90;;;;;;5113816;28;20207;-71
2022/08/07 06:08:20;;;;;;;13.07;10.60;;;26.10;99.90;;;;;;5112209;28;20234;-69
2022/08/07 06:10:47;;;;;;;13.00;10.90;;;26.10;99.90;;;;;;5113561;28;20235;-69
2022/08/07 06:13:14;;;;;;;15.15;11.13;;;26.10;99.90;;;;;;5113779;28;20245;-73
2022/08/07 06:15:42;;;;;;;15.07;10.70;;;26.20;99.90;;;;;;5102970;28;20213;-69
2022/08/07 06:18:11;;;;;;;12.85;9.80;;;26.30;99.90;;;;;;5093146;28;20209;-70
2022/08/07 06:20:38;;;;;;;10.93;9.60;;;26.30;99.90;;;;;;5094758;28;20258;-70
2022/08/07 06:23:08;;;;;;;11.20;9.82;;;26.40;99.90;;;;;;5113195;28;20222;-69
2022/08/07 06:25:36;;;;;;;12.27;9.98;;;26.40;99.90;;;;;;5111181;28;20622;-69
2022/08/07 06:28:03;;;;;;;11.98;10.70;;;26.50;99.90;;;;;;5111077;28;20213;-69
2022/08/07 06:30:30;;;;;;;11.82;9.90;;;26.50;99.90;;;;;;5113390;28;20308;-70
2022/08/07 06:32:57;;;;;;;11.60;9.50;;;26.60;99.90;;;;;;5104875;28;20553;-69
2022/08/07 06:35:24;;;;;;;11.95;10.00;;;26.60;99.90;;;;;;5092552;28;20238;-70
2022/08/07 06:37:51;;;;;;;12.50;9.57;;;26.70;99.90;;;;;;5091982;28;20533;-70
2022/08/07 06:40:19;;;;;;;11.02;9.70;;;26.80;99.90;;;;;;5092482;28;20319;-67
2022/08/07 06:42:48;;;;;;;11.45;9.50;;;26.90;99.90;;;;;;5096643;28;20669;-70
2022/08/07 06:45:17;;;;;;;11.68;8.93;;;26.90;99.90;;;;;;5111057;28;20293;-69
2022/08/07 06:47:45;;;;;;;10.10;9.00;;;26.90;99.90;;;;;;5099314;28;20200;-68
2022/08/07 06:50:13;;;;;;;11.35;9.65;;;27.00;99.90;;;;;;5092169;28;20209;-69
2022/08/07 06:52:44;;;;;;;14.30;9.18;;;27.00;99.90;;;;;;5092472;28;20292;-69
2022/08/07 06:55:15;;;;;;;12.75;9.27;;;27.10;99.90;;;;;;5092897;27;20293;-69
2022/08/07 06:57:44;;;;;;;12.30;8.52;;;27.20;99.90;;;;;;5092416;28;20190;-68
2022/08/07 07:00:12;;;;;;;9.27;7.82;;;27.20;99.90;;;;;;5092155;28;20297;-69
2022/08/07 07:02:42;;;;;;;11.90;9.07;;;27.30;99.90;;;;;;5091892;28;20209;-69
2022/08/07 07:05:10;;;;;;;9.80;8.43;;;27.30;99.90;;;;;;5092120;28;20744;-69
2022/08/07 07:07:37;;;;;;;8.18;7.28;;;27.40;99.90;;;;;;5092439;28;20636;-68
2022/08/07 07:10:05;;;;;;;9.98;8.20;;;27.50;99.90;;;;;;5101421;28;20299;-69
2022/08/07 07:12:47;;;;;;;10.43;8.60;;;27.50;99.90;;;;;;5105926;28;20594;-70
2022/08/07 07:15:18;;;;;;;8.63;7.75;;;27.60;99.90;;;;;;5093712;28;20293;-69
2022/08/07 07:17:52;;;;;;;10.93;8.05;;;27.70;99.90;;;;;;5090800;28;20541;-72
2022/08/07 07:20:23;;;;;;;11.48;9.07;;;27.70;99.90;;;;;;5091908;28;20340;-69
2022/08/07 07:22:51;;;;;;;11.93;8.88;;;27.80;99.90;;;;;;5091545;28;20221;-71
2022/08/07 07:25:19;;;;;;;10.80;8.75;;;27.80;99.90;;;;;;5092570;28;20251;-70
2022/08/07 07:27:53;;;;;;;18.83;15.07;;;27.80;99.90;;;;;;5092390;28;20556;-70
2022/08/07 07:30:24;;;;;;;12.52;9.02;;;27.90;99.90;;;;;;5091970;28;20277;-69
2022/08/07 07:32:53;;;;;;;11.00;8.70;;;27.90;99.90;;;;;;5091731;28;20199;-68
2022/08/07 07:35:22;;;;;;;10.75;9.00;;;28.00;99.90;;;;;;5091289;28;20720;-68
2022/08/07 07:37:51;;;;;;;12.15;8.80;;;28.00;99.90;;;;;;5092082;28;20293;-69
2022/08/07 07:40:20;;;;;;;12.00;9.45;;;28.10;99.90;;;;;;5092064;28;20212;-70
2022/08/07 07:42:54;;;;;;;10.30;8.02;;;28.10;99.90;;;;;;5091988;28;20295;-69
2022/08/07 07:45:25;;;;;;;10.70;7.95;;;28.10;99.90;;;;;;5105231;28;20232;-69
2022/08/07 07:47:56;;;;;;;9.65;8.02;;;28.10;99.90;;;;;;5111683;28;20540;-69
2022/08/07 07:50:24;;;;;;;12.27;9.63;;;28.10;99.90;;;;;;5099092;28;20205;-68
2022/08/07 07:52:53;;;;;;;12.90;8.57;;;28.20;99.90;;;;;;5110103;28;20292;-69
2022/08/07 07:55:21;;;;;;;9.38;7.78;;;28.20;99.90;;;;;;5107347;28;20200;-70
2022/08/07 07:57:49;;;;;;;10.32;8.55;;;28.30;99.90;;;;;;5091770;28;20572;-69
2022/08/07 08:00:18;;;;;;;10.13;7.80;;;28.40;99.90;;;;;;5091895;28;20314;-68
2022/08/07 08:02:49;;;;;;;11.52;7.47;;;28.40;99.90;;;;;;5091785;28;20662;-71
2022/08/07 08:05:18;;;;;;;12.30;7.75;;;28.50;99.90;;;;;;5093224;28;20681;-70
2022/08/07 08:07:46;;;;;;;8.88;7.55;;;28.60;99.90;;;;;;5112092;28;20643;-68
2022/08/07 08:10:15;;;;;;;10.82;7.88;;;28.60;99.90;;;;;;5111967;28;20199;-69
2022/08/07 08:12:43;;;;;;;12.90;7.63;;;28.70;99.90;;;;;;5110054;28;20209;-70
2022/08/07 08:15:11;;;;;;;8.35;6.85;;;28.80;99.90;;;;;;5111615;28;20205;-69
2022/08/07 08:17:41;;;;;;;9.00;7.35;;;28.80;99.90;;;;;;5111474;28;20309;-71
2022/08/07 08:20:10;;;;;;;9.43;7.57;;;28.80;99.90;;;;;;5111443;28;20290;-70
2022/08/07 08:28:17;;;;;;;9.77;7.03;;;28.90;99.90;;;;;;5111815;28;20323;-69
2022/08/07 08:30:45;;;;;;;8.07;6.57;;;29.00;99.90;;;;;;5110427;28;20644;-71
2022/08/07 08:33:17;;;;;;;7.13;6.40;;;29.10;99.90;;;;;;5111645;28;20283;-69
2022/08/07 08:35:49;;;;;;;8.38;6.30;;;29.10;99.90;;;;;;5111277;28;20673;-69
2022/08/07 08:38:18;;;;;;;6.53;5.93;;;29.20;99.90;;;;;;5111461;28;20187;-69
2022/08/07 08:40:53;;;;;;;9.38;5.95;;;29.30;99.90;;;;;;5109411;28;20306;-71
2022/08/07 08:43:27;;;;;;;7.75;6.60;;;29.50;99.90;;;;;;5110816;28;20629;-70
2022/08/07 08:46:08;;;;;;;8.20;5.65;;;29.50;99.90;;;;;;5111479;28;20273;-70
2022/08/07 08:48:46;;;;;;;7.60;6.00;;;29.40;99.90;;;;;;5111792;28;20219;-75
2022/08/07 08:51:19;;;;;;;8.00;5.57;;;29.50;99.90;;;;;;5101809;28;20200;-69
2022/08/07 08:53:54;;;;;;;7.32;6.32;;;29.50;99.90;;;;;;5091107;28;20180;-69
2022/08/07 08:56:25;;;;;;;7.22;6.00;;;29.60;99.90;;;;;;5091099;28;20188;-68
2022/08/07 08:59:01;;;;;;;6.78;5.82;;;29.60;99.90;;;;;;5090968;28;20192;-70
2022/08/07 09:01:35;;;;;;;7.22;6.38;;;29.60;99.90;;;;;;5098039;28;20199;-70
2022/08/07 09:04:10;;;;;;;7.10;6.40;;;29.70;99.90;;;;;;5101756;28;20214;-70
2022/08/07 09:06:44;;;;;;;9.13;6.25;;;29.70;99.90;;;;;;5106384;28;20332;-68
2022/08/07 09:09:24;;;;;;;7.60;5.72;;;29.70;99.90;;;;;;5111802;28;20200;-70
2022/08/07 09:12:00;;;;;;;7.78;6.25;;;29.60;99.90;;;;;;5114660;28;20195;-69
2022/08/07 09:14:39;;;;;;;11.82;8.13;;;29.50;99.90;;;;;;5108818;28;20279;-70
2022/08/07 09:17:17;;;;;;;12.32;7.63;;;29.10;99.90;;;;;;5105049;28;20310;-69
2022/08/07 09:19:56;;;;;;;11.05;5.70;;;28.00;99.90;;;;;;5104817;27;20211;-70
2022/08/07 09:22:39;;;;;;;6.30;4.95;;;26.00;99.90;;;;;;5107996;28;20211;-70
2022/08/07 09:25:10;;;;;;;6.43;4.90;;;24.10;99.90;;;;;;5112171;28;20301;-71
2022/08/07 09:27:44;;;;;;;8.87;5.27;;;23.00;99.90;;;;;;5094568;28;20818;-69
2022/08/07 09:30:13;;;;;;;17.43;7.77;;;22.30;99.90;;;;;;5094278;28;20227;-71
2022/08/07 09:32:57;;;;;;;9.83;6.43;;;21.70;99.90;;;;;;5108998;28;20212;-69
2022/08/07 09:35:38;;;;;;;10.27;6.83;;;21.20;99.90;;;;;;5114204;28;20322;-71
2022/08/07 09:38:13;;;;;;;10.30;7.57;;;21.00;99.90;;;;;;5105340;28;20687;-69
2022/08/07 09:40:57;;;;;;;10.00;7.07;;;20.80;99.90;;;;;;5110501;28;20538;-69
2022/08/07 09:43:34;;;;;;;15.00;8.00;;;20.60;99.90;;;;;;5114712;27;20215;-69
2022/08/07 09:46:09;;;;;;;15.90;7.10;;;20.40;99.90;;;;;;5114821;27;20644;-69
2022/08/07 09:48:46;;;;;;;16.87;10.50;;;20.20;99.90;;;;;;5107189;28;20235;-68
2022/08/07 09:51:31;;;;;;;13.30;9.50;;;20.20;99.90;;;;;;5093881;28;20283;-68
2022/08/07 09:54:01;;;;;;;12.00;7.70;;;20.20;99.90;;;;;;5094163;28;20220;-70
2022/08/07 09:57:00;;;;;;;12.53;8.47;;;20.30;99.90;;;;;;5094269;28;20275;-70
2022/08/07 10:00:00;;;;;;;12.13;8.80;;;20.50;99.90;;;;;;5093690;28;20189;-68
2022/08/07 10:02:52;;;;;;;10.27;8.20;;;20.60;99.90;;;;;;5109096;28;20238;-70
2022/08/07 10:05:38;;;;;;;10.50;7.30;;;20.70;99.90;;;;;;5071602;28;20325;-71
2022/08/07 10:08:31;;;;;;;12.07;9.17;;;20.90;99.90;;;;;;5093648;28;20275;-69
2022/08/07 10:11:05;;;;;;;11.80;8.93;;;21.10;99.90;;;;;;5093446;28;20196;-70
2022/08/07 10:13:50;;;;;;;11.97;9.30;;;21.30;99.90;;;;;;5093273;28;20220;-71
2022/08/07 10:16:38;;;;;;;12.53;9.00;;;21.50;99.90;;;;;;5109959;27;20205;-71
2022/08/07 10:19:34;;;;;;;12.50;8.40;;;21.60;99.90;;;;;;5118093;27;20310;-71
2022/08/07 10:22:22;;;;;;;10.33;8.63;;;21.80;99.90;;;;;;5110881;28;20204;-70
2022/08/07 10:25:09;;;;;;;9.63;8.10;;;22.00;99.90;;;;;;5104367;27;20219;-69
2022/08/07 10:27:56;;;;;;;11.43;7.47;;;22.20;99.90;;;;;;5110661;28;20201;-72
2022/08/07 10:30:34;;;;;;;12.37;8.27;;;22.10;99.90;;;;;;5096057;28;20689;-73
2022/08/07 10:33:30;;;;;;;12.60;9.73;;;22.30;99.90;;;;;;5093432;28;20225;-71
2022/08/07 10:36:17;;;;;;;12.23;9.10;;;22.60;99.90;;;;;;5093157;28;20282;-70
2022/08/07 10:38:52;;;;;;;9.60;8.60;;;22.80;99.90;;;;;;5111976;28;20284;-69
2022/08/07 10:41:32;;;;;;;9.57;8.10;;;22.90;99.90;;;;;;5092843;28;20201;-70
2022/08/07 15:36:27;;;;;;;10.40;9.30;;;19.70;99.90;;;;;;5047762;28;20595;-70
2022/08/07 15:38:55;;;;;;;13.13;9.57;;;20.10;99.90;;;;;;5047940;28;20251;-71
2022/08/07 15:41:24;;;;;;;13.73;10.27;;;20.20;99.90;;;;;;5048551;28;20264;-71
2022/08/07 15:44:00;;;;;;;13.77;9.93;;;20.30;99.90;;;;;;5048547;28;20206;-72
2022/08/07 15:46:29;;;;;;;12.43;9.30;;;20.30;99.90;;;;;;5046178;28;20204;-71
2022/08/07 15:48:58;;;;;;;13.53;10.03;;;20.40;99.90;;;;;;5052026;28;20712;-72
2022/08/07 15:51:28;;;;;;;10.43;8.47;;;20.40;99.90;;;;;;5048927;28;20626;-70
2022/08/07 15:53:57;;;;;;;13.23;9.13;;;20.50;99.90;;;;;;5048297;28;20207;-71
2022/08/07 15:56:32;;;;;;;13.80;8.47;;;20.50;99.90;;;;;;5048567;28;20677;-69
2022/08/07 15:59:01;;;;;;;11.30;8.63;;;20.50;99.90;;;;;;5048190;28;20225;-70
2022/08/07 16:01:31;;;;;;;11.13;7.97;;;20.60;99.90;;;;;;5048380;28;20208;-72
2022/08/07 16:04:01;;;;;;;9.13;8.07;;;20.60;99.90;;;;;;5048438;28;20190;-73
2022/08/07 16:06:32;;;;;;;9.90;8.00;;;20.60;99.90;;;;;;5051983;28;20205;-73
2022/08/07 16:09:03;;;;;;;9.50;7.37;;;20.60;99.90;;;;;;5054221;28;20196;-72
2022/08/07 16:11:43;;;;;;;10.07;7.80;;;20.60;99.90;;;;;;5047724;28;20190;-71
2022/08/07 16:14:15;;;;;;;10.13;7.00;;;20.60;99.90;;;;;;5047457;28;20216;-71
2022/08/07 16:17:07;;;;;;;8.73;7.00;;;20.60;99.90;;;;;;5047601;28;20222;-70
2022/08/07 16:20:02;;;;;;;8.60;7.00;;;20.70;99.90;;;;;;5041564;28;20210;-74
2022/08/07 16:22:50;;;;;;;7.83;6.80;;;20.70;99.90;;;;;;5028395;28;20195;-71
2022/08/07 16:25:34;;;;;;;7.93;7.07;;;20.60;99.90;;;;;;5036130;28;20317;-73
2022/08/07 16:28:22;;;;;;;10.00;6.80;;;20.60;99.90;;;;;;5028026;28;20620;-73
2022/08/07 16:30:56;;;;;;;10.00;6.90;;;20.60;99.90;;;;;;5027956;28;20190;-72
2022/08/07 16:33:29;;;;;;;9.00;6.90;;;20.70;99.90;;;;;;5028303;28;20658;-72
2022/08/07 16:36:17;;;;;;;9.50;6.90;;;20.70;99.90;;;;;;5022313;28;20242;-72
2022/08/07 16:39:04;;;;;;;7.90;7.10;;;20.70;99.90;;;;;;4997931;28;20559;-72
2022/08/07 16:41:58;;;;;;;10.30;7.40;;;20.70;99.90;;;;;;5004779;28;20251;-73
2022/08/07 16:44:43;;;;;;;7.87;6.83;;;20.70;99.90;;;;;;5006492;28;20772;-72
2022/08/07 16:47:28;;;;;;;8.60;7.47;;;20.70;99.90;;;;;;5012438;28;20211;-73
2022/08/07 16:50:13;;;;;;;8.77;7.23;;;20.70;99.90;;;;;;5011436;28;20203;-75
2022/08/07 16:52:59;;;;;;;8.60;7.17;;;20.60;99.90;;;;;;5007335;28;20871;-73
2022/08/07 16:55:37;;;;;;;10.50;7.47;;;20.60;99.90;;;;;;5012730;28;20190;-73
2022/08/07 16:58:16;;;;;;;8.23;6.70;;;20.50;99.90;;;;;;5013153;28;20210;-72
2022/08/07 17:00:59;;;;;;;7.77;6.97;;;20.50;99.90;;;;;;5013237;28;20241;-71
2022/08/07 17:03:34;;;;;;;8.27;7.27;;;20.50;99.90;;;;;;5012126;28;20284;-73
2022/08/07 17:06:13;;;;;;;7.17;6.47;;;20.50;99.90;;;;;;5002566;28;20664;-72
2022/08/07 17:08:48;;;;;;;7.43;6.63;;;20.40;99.90;;;;;;5011055;28;20214;-71
2022/08/07 17:11:27;;;;;;;8.43;7.40;;;20.30;99.90;;;;;;5010397;28;20197;-74
2022/08/07 17:14:04;;;;;;;8.23;6.77;;;20.30;99.90;;;;;;5008177;28;20294;-72
2022/08/07 17:16:42;;;;;;;7.67;6.87;;;20.30;99.90;;;;;;5006308;28;20210;-71
2022/08/07 17:19:21;;;;;;;7.73;6.80;;;20.30;99.90;;;;;;5013115;28;20240;-73
2022/08/07 17:21:54;;;;;;;8.30;6.97;;;20.30;99.90;;;;;;5007324;28;20207;-72
2022/08/07 17:24:35;;;;;;;10.33;7.37;;;20.30;99.90;;;;;;5003289;28;20594;-74
2022/08/07 17:27:08;;;;;;;8.43;7.27;;;20.30;99.90;;;;;;5009881;28;20278;-73
2022/08/07 17:29:52;;;;;;;9.83;8.03;;;20.30;99.90;;;;;;5014895;28;20514;-75
2022/08/07 17:32:27;;;;;;;8.87;7.00;;;20.30;99.90;;;;;;5032057;28;20522;-76
2022/08/07 17:34:57;;;;;;;7.53;6.60;;;20.30;99.90;;;;;;5020595;28;20321;-74
2022/08/07 17:37:30;;;;;;;8.80;6.57;;;20.30;99.90;;;;;;5012929;28;20489;-74
2022/08/07 17:40:03;;;;;;;9.87;7.10;;;20.30;99.90;;;;;;5012800;28;20740;-72
2022/08/07 17:42:44;;;;;;;9.23;6.97;;;20.30;99.90;;;;;;5011185;28;20206;-72
2022/08/07 17:45:17;;;;;;;8.00;6.67;;;20.30;99.90;;;;;;5004432;28;20223;-74
2022/08/07 17:47:50;;;;;;;8.30;7.23;;;20.30;99.90;;;;;;4993101;28;20284;-75
2022/08/07 17:50:19;;;;;;;10.33;6.83;;;20.20;99.90;;;;;;4994428;28;20275;-74
2022/08/07 17:52:54;;;;;;;8.13;6.63;;;20.20;99.90;;;;;;5007356;28;20235;-74
2022/08/07 17:55:31;;;;;;;8.03;7.00;;;20.20;99.90;;;;;;5011980;28;20281;-75
2022/08/07 17:58:06;;;;;;;8.50;6.57;;;20.20;99.90;;;;;;5011984;28;20251;-74